sensor_id;sensor_type;location;lat;lon;timestamp;temperature;humidity
1355;DHT22;671;48.972;9.276;2023-04-03T00:00:31;5.50;1.00
1355;DHT22;671;48.972;9.276;2023-04-03T00:02:57;5.50;1.00
1355;DHT22;671;48.972;9.276;2023-04-03T00:05:24;5.50;1.00
1355;DHT22;671;48.972;9.276;2023-04-03T00:07:51;5.50;1.00
1355;DHT22;671;48.972;9.276;2023-04-03T00:10:18;5.50;1.00
1355;DHT22;671;48.972;9.276;2023-04-03T00:12:44;5.50;1.00
1355;DHT22;671;48.972;9.276;2023-04-03T00:15:11;5.50;1.00
1355;DHT22;671;48.972;9.276;2023-04-03T00:17:37;5.50;1.00
1355;DHT22;671;48.972;9.276;2023-04-03T00:20:04;5.50;1.00
1355;DHT22;671;48.972;9.276;2023-04-03T00:22:31;5.40;1.00
1355;DHT22;671;48.972;9.276;2023-04-03T00:24:58;5.40;1.00
1355;DHT22;671;48.972;9.276;2023-04-03T00:27:24;5.40;1.00
1355;DHT22;671;48.972;9.276;2023-04-03T00:29:51;5.40;1.00
1355;DHT22;671;48.972;9.276;2023-04-03T00:32:18;5.40;1.00
1355;DHT22;671;48.972;9.276;2023-04-03T00:34:45;5.30;1.00
1355;DHT22;671;48.972;9.276;2023-04-03T00:37:11;5.30;1.00
1355;DHT22;671;48.972;9.276;2023-04-03T00:39:38;5.30;99.90
1355;DHT22;671;48.972;9.276;2023-04-03T00:42:04;5.30;1.00
1355;DHT22;671;48.972;9.276;2023-04-03T00:47:01;5.20;1.00
1355;DHT22;671;48.972;9.276;2023-04-03T00:49:28;5.20;1.00
1355;DHT22;671;48.972;9.276;2023-04-03T00:51:56;5.20;99.90
1355;DHT22;671;48.972;9.276;2023-04-03T00:54:23;5.20;99.90
1355;DHT22;671;48.972;9.276;2023-04-03T00:56:51;5.20;63.90
1355;DHT22;671;48.972;9.276;2023-04-03T00:59:23;5.10;30.60
1355;DHT22;671;48.972;9.276;2023-04-03T01:01:55;5.10;99.90
1355;DHT22;671;48.972;9.276;2023-04-03T01:07:15;5.00;1.00
1355;DHT22;671;48.972;9.276;2023-04-03T01:09:43;5.00;41.00
1355;DHT22;671;48.972;9.276;2023-04-03T01:12:34;5.00;74.20
1355;DHT22;671;48.972;9.276;2023-04-03T01:17:32;4.90;99.90
1355;DHT22;671;48.972;9.276;2023-04-03T01:25:52;4.80;1.00
1355;DHT22;671;48.972;9.276;2023-04-03T01:28:27;4.80;99.90
1355;DHT22;671;48.972;9.276;2023-04-03T01:33:42;4.70;99.90
1355;DHT22;671;48.972;9.276;2023-04-03T01:36:15;4.70;99.90
1355;DHT22;671;48.972;9.276;2023-04-03T01:38:41;4.60;1.00
1355;DHT22;671;48.972;9.276;2023-04-03T01:41:08;4.60;1.00
1355;DHT22;671;48.972;9.276;2023-04-03T01:43:35;4.50;98.90
1355;DHT22;671;48.972;9.276;2023-04-03T01:46:01;4.50;1.00
1355;DHT22;671;48.972;9.276;2023-04-03T01:48:28;4.50;59.10
1355;DHT22;671;48.972;9.276;2023-04-03T01:50:54;4.50;1.00
1355;DHT22;671;48.972;9.276;2023-04-03T01:53:21;4.50;1.00
1355;DHT22;671;48.972;9.276;2023-04-03T01:55:48;4.50;1.00
1355;DHT22;671;48.972;9.276;2023-04-03T01:58:14;4.50;1.00
1355;DHT22;671;48.972;9.276;2023-04-03T02:00:41;4.50;1.00
1355;DHT22;671;48.972;9.276;2023-04-03T02:03:08;4.60;1.00
1355;DHT22;671;48.972;9.276;2023-04-03T02:05:34;4.60;1.00
1355;DHT22;671;48.972;9.276;2023-04-03T02:08:01;4.70;1.00
1355;DHT22;671;48.972;9.276;2023-04-03T02:10:27;4.70;1.00
1355;DHT22;671;48.972;9.276;2023-04-03T02:12:54;4.80;99.90
1355;DHT22;671;48.972;9.276;2023-04-03T02:15:20;4.90;1.00
1355;DHT22;671;48.972;9.276;2023-04-03T02:17:47;5.00;1.00
1355;DHT22;671;48.972;9.276;2023-04-03T02:20:13;5.00;1.00
1355;DHT22;671;48.972;9.276;2023-04-03T02:22:46;5.10;1.00
1355;DHT22;671;48.972;9.276;2023-04-03T02:25:13;5.10;1.00
1355;DHT22;671;48.972;9.276;2023-04-03T02:27:39;5.10;1.00
1355;DHT22;671;48.972;9.276;2023-04-03T02:30:06;5.20;1.00
1355;DHT22;671;48.972;9.276;2023-04-03T02:32:33;5.20;99.90
1355;DHT22;671;48.972;9.276;2023-04-03T02:34:59;5.20;99.90
1355;DHT22;671;48.972;9.276;2023-04-03T02:37:26;5.20;1.00
1355;DHT22;671;48.972;9.276;2023-04-03T02:39:52;5.30;1.00
1355;DHT22;671;48.972;9.276;2023-04-03T02:42:18;5.20;1.00
1355;DHT22;671;48.972;9.276;2023-04-03T02:44:45;5.20;1.00
1355;DHT22;671;48.972;9.276;2023-04-03T02:47:12;5.30;1.00
1355;DHT22;671;48.972;9.276;2023-04-03T02:49:38;5.30;1.00
1355;DHT22;671;48.972;9.276;2023-04-03T02:52:04;5.30;1.00
1355;DHT22;671;48.972;9.276;2023-04-03T02:54:31;5.30;1.00
1355;DHT22;671;48.972;9.276;2023-04-03T02:56:57;5.30;1.00
1355;DHT22;671;48.972;9.276;2023-04-03T02:59:24;5.30;16.30
1355;DHT22;671;48.972;9.276;2023-04-03T03:01:50;5.30;1.00
1355;DHT22;671;48.972;9.276;2023-04-03T03:04:17;5.20;99.90
1355;DHT22;671;48.972;9.276;2023-04-03T03:06:43;5.20;1.00
1355;DHT22;671;48.972;9.276;2023-04-03T03:09:10;5.20;99.90
1355;DHT22;671;48.972;9.276;2023-04-03T03:11:36;5.20;1.00
1355;DHT22;671;48.972;9.276;2023-04-03T03:14:03;5.10;99.90
1355;DHT22;671;48.972;9.276;2023-04-03T03:16:30;5.10;1.00
1355;DHT22;671;48.972;9.276;2023-04-03T03:18:56;5.20;1.00
1355;DHT22;671;48.972;9.276;2023-04-03T03:21:22;5.20;1.00
1355;DHT22;671;48.972;9.276;2023-04-03T03:23:49;5.10;1.00
1355;DHT22;671;48.972;9.276;2023-04-03T03:26:15;5.10;1.00
1355;DHT22;671;48.972;9.276;2023-04-03T03:28:42;5.10;1.00
1355;DHT22;671;48.972;9.276;2023-04-03T03:31:08;5.20;1.00
1355;DHT22;671;48.972;9.276;2023-04-03T03:33:35;5.20;1.00
1355;DHT22;671;48.972;9.276;2023-04-03T03:36:02;5.20;1.00
1355;DHT22;671;48.972;9.276;2023-04-03T03:38:28;5.20;1.00
1355;DHT22;671;48.972;9.276;2023-04-03T03:40:55;5.30;1.00
1355;DHT22;671;48.972;9.276;2023-04-03T03:43:22;5.30;1.00
1355;DHT22;671;48.972;9.276;2023-04-03T03:45:52;5.30;1.00
1355;DHT22;671;48.972;9.276;2023-04-03T03:48:19;5.20;99.90
1355;DHT22;671;48.972;9.276;2023-04-03T03:50:47;5.20;99.90
1355;DHT22;671;48.972;9.276;2023-04-03T03:53:13;5.20;99.90
1355;DHT22;671;48.972;9.276;2023-04-03T03:55:41;5.20;99.90
1355;DHT22;671;48.972;9.276;2023-04-03T03:58:08;5.20;1.00
1355;DHT22;671;48.972;9.276;2023-04-03T04:00:34;5.20;99.90
1355;DHT22;671;48.972;9.276;2023-04-03T04:03:01;5.20;41.30
1355;DHT22;671;48.972;9.276;2023-04-03T04:05:27;5.20;1.00
1355;DHT22;671;48.972;9.276;2023-04-03T04:07:53;5.20;27.90
1355;DHT22;671;48.972;9.276;2023-04-03T04:10:20;5.20;98.70
1355;DHT22;671;48.972;9.276;2023-04-03T04:12:46;5.30;65.80
1355;DHT22;671;48.972;9.276;2023-04-03T04:15:15;5.20;99.90
1355;DHT22;671;48.972;9.276;2023-04-03T04:17:41;5.30;21.60
1355;DHT22;671;48.972;9.276;2023-04-03T04:20:08;5.20;1.00
1355;DHT22;671;48.972;9.276;2023-04-03T04:22:35;5.20;49.30
1355;DHT22;671;48.972;9.276;2023-04-03T04:25:01;5.30;59.50
1355;DHT22;671;48.972;9.276;2023-04-03T04:27:28;5.30;99.90
1355;DHT22;671;48.972;9.276;2023-04-03T04:29:54;5.20;99.90
1355;DHT22;671;48.972;9.276;2023-04-03T04:32:21;5.20;1.00
1355;DHT22;671;48.972;9.276;2023-04-03T04:34:47;5.20;1.00
1355;DHT22;671;48.972;9.276;2023-04-03T04:37:14;5.10;1.00
1355;DHT22;671;48.972;9.276;2023-04-03T04:39:40;5.20;1.00
1355;DHT22;671;48.972;9.276;2023-04-03T04:42:07;5.20;1.00
1355;DHT22;671;48.972;9.276;2023-04-03T04:44:39;5.20;1.00
1355;DHT22;671;48.972;9.276;2023-04-03T04:47:06;5.10;99.90
1355;DHT22;671;48.972;9.276;2023-04-03T04:49:32;5.10;99.90
1355;DHT22;671;48.972;9.276;2023-04-03T04:51:59;5.00;1.00
1355;DHT22;671;48.972;9.276;2023-04-03T04:54:25;5.00;1.00
1355;DHT22;671;48.972;9.276;2023-04-03T04:56:52;4.90;1.00
1355;DHT22;671;48.972;9.276;2023-04-03T04:59:18;4.90;1.00
1355;DHT22;671;48.972;9.276;2023-04-03T05:01:45;4.90;1.00
1355;DHT22;671;48.972;9.276;2023-04-03T05:04:11;4.90;1.00
1355;DHT22;671;48.972;9.276;2023-04-03T05:06:39;4.90;99.00
1355;DHT22;671;48.972;9.276;2023-04-03T05:09:05;4.80;24.00
1355;DHT22;671;48.972;9.276;2023-04-03T05:11:32;4.80;85.10
1355;DHT22;671;48.972;9.276;2023-04-03T05:13:59;4.80;99.90
1355;DHT22;671;48.972;9.276;2023-04-03T05:16:25;4.80;99.90
1355;DHT22;671;48.972;9.276;2023-04-03T05:18:52;4.80;99.90
1355;DHT22;671;48.972;9.276;2023-04-03T05:21:18;4.70;99.90
1355;DHT22;671;48.972;9.276;2023-04-03T05:23:58;4.70;1.00
1355;DHT22;671;48.972;9.276;2023-04-03T05:26:31;4.70;99.90
1355;DHT22;671;48.972;9.276;2023-04-03T05:28:58;4.70;99.90
1355;DHT22;671;48.972;9.276;2023-04-03T05:31:24;4.70;1.00
1355;DHT22;671;48.972;9.276;2023-04-03T05:33:51;4.70;1.00
1355;DHT22;671;48.972;9.276;2023-04-03T05:36:18;4.70;1.00
1355;DHT22;671;48.972;9.276;2023-04-03T05:38:44;4.80;1.00
1355;DHT22;671;48.972;9.276;2023-04-03T05:41:11;4.80;1.00
1355;DHT22;671;48.972;9.276;2023-04-03T05:43:37;4.90;1.00
1355;DHT22;671;48.972;9.276;2023-04-03T05:46:10;4.90;98.10
1355;DHT22;671;48.972;9.276;2023-04-03T05:48:37;4.90;99.90
1355;DHT22;671;48.972;9.276;2023-04-03T05:51:05;4.90;99.90
1355;DHT22;671;48.972;9.276;2023-04-03T05:53:35;4.90;99.90
1355;DHT22;671;48.972;9.276;2023-04-03T05:56:03;5.00;99.90
1355;DHT22;671;48.972;9.276;2023-04-03T05:58:30;5.10;99.90
1355;DHT22;671;48.972;9.276;2023-04-03T06:00:56;5.10;96.70
1355;DHT22;671;48.972;9.276;2023-04-03T06:03:24;5.30;1.00
1355;DHT22;671;48.972;9.276;2023-04-03T06:05:51;5.40;1.00
1355;DHT22;671;48.972;9.276;2023-04-03T06:08:17;5.40;1.00
1355;DHT22;671;48.972;9.276;2023-04-03T06:10:51;5.40;1.00
1355;DHT22;671;48.972;9.276;2023-04-03T06:13:17;5.50;1.00
1355;DHT22;671;48.972;9.276;2023-04-03T06:15:44;5.60;99.90
1355;DHT22;671;48.972;9.276;2023-04-03T06:18:10;5.60;1.00
1355;DHT22;671;48.972;9.276;2023-04-03T06:20:37;5.60;1.00
1355;DHT22;671;48.972;9.276;2023-04-03T06:23:03;5.70;1.00
1355;DHT22;671;48.972;9.276;2023-04-03T06:25:30;5.80;1.00
1355;DHT22;671;48.972;9.276;2023-04-03T06:27:57;5.80;1.00
1355;DHT22;671;48.972;9.276;2023-04-03T06:30:24;5.90;1.00
1355;DHT22;671;48.972;9.276;2023-04-03T06:32:51;6.00;1.00
1355;DHT22;671;48.972;9.276;2023-04-03T06:35:18;6.10;1.00
1355;DHT22;671;48.972;9.276;2023-04-03T06:37:44;6.10;99.90
1355;DHT22;671;48.972;9.276;2023-04-03T06:40:19;6.20;99.90
1355;DHT22;671;48.972;9.276;2023-04-03T06:42:46;6.20;99.90
1355;DHT22;671;48.972;9.276;2023-04-03T06:45:13;6.30;99.90
1355;DHT22;671;48.972;9.276;2023-04-03T06:47:39;6.40;19.80
1355;DHT22;671;48.972;9.276;2023-04-03T06:50:06;6.50;1.00
1355;DHT22;671;48.972;9.276;2023-04-03T06:52:35;6.50;1.00
1355;DHT22;671;48.972;9.276;2023-04-03T06:55:02;6.50;1.00
1355;DHT22;671;48.972;9.276;2023-04-03T06:57:28;6.60;1.00
1355;DHT22;671;48.972;9.276;2023-04-03T06:59:55;6.70;1.00
1355;DHT22;671;48.972;9.276;2023-04-03T07:02:21;6.70;1.00
1355;DHT22;671;48.972;9.276;2023-04-03T07:04:48;6.80;1.00
1355;DHT22;671;48.972;9.276;2023-04-03T07:07:14;7.00;1.00
1355;DHT22;671;48.972;9.276;2023-04-03T07:09:41;7.20;1.00
1355;DHT22;671;48.972;9.276;2023-04-03T07:12:09;7.30;1.00
1355;DHT22;671;48.972;9.276;2023-04-03T07:14:38;7.20;99.90
1355;DHT22;671;48.972;9.276;2023-04-03T07:17:04;7.10;99.90
1355;DHT22;671;48.972;9.276;2023-04-03T07:19:31;7.20;99.90
1355;DHT22;671;48.972;9.276;2023-04-03T07:21:57;7.10;99.90
1355;DHT22;671;48.972;9.276;2023-04-03T07:24:24;7.10;99.90
1355;DHT22;671;48.972;9.276;2023-04-03T07:26:52;7.20;99.90
1355;DHT22;671;48.972;9.276;2023-04-03T07:29:19;7.30;99.90
1355;DHT22;671;48.972;9.276;2023-04-03T07:31:47;7.30;99.90
1355;DHT22;671;48.972;9.276;2023-04-03T07:34:14;7.20;99.90
1355;DHT22;671;48.972;9.276;2023-04-03T07:36:40;7.10;99.90
1355;DHT22;671;48.972;9.276;2023-04-03T07:39:07;7.00;99.90
1355;DHT22;671;48.972;9.276;2023-04-03T07:41:34;7.10;99.90
1355;DHT22;671;48.972;9.276;2023-04-03T07:44:00;7.10;99.90
1355;DHT22;671;48.972;9.276;2023-04-03T07:46:27;7.20;99.90
1355;DHT22;671;48.972;9.276;2023-04-03T07:48:54;7.20;99.90
1355;DHT22;671;48.972;9.276;2023-04-03T07:51:20;7.30;99.90
1355;DHT22;671;48.972;9.276;2023-04-03T07:53:47;7.40;99.90
1355;DHT22;671;48.972;9.276;2023-04-03T07:56:16;7.30;99.90
1355;DHT22;671;48.972;9.276;2023-04-03T07:58:43;7.20;58.70
1355;DHT22;671;48.972;9.276;2023-04-03T08:01:09;7.10;1.00
1355;DHT22;671;48.972;9.276;2023-04-03T08:03:36;7.10;1.00
1355;DHT22;671;48.972;9.276;2023-04-03T08:06:05;7.10;1.00
1355;DHT22;671;48.972;9.276;2023-04-03T08:08:33;7.30;1.00
1355;DHT22;671;48.972;9.276;2023-04-03T08:11:00;7.50;1.00
1355;DHT22;671;48.972;9.276;2023-04-03T08:13:29;7.70;1.00
1355;DHT22;671;48.972;9.276;2023-04-03T08:15:56;7.90;1.00
1355;DHT22;671;48.972;9.276;2023-04-03T08:18:25;8.00;1.00
1355;DHT22;671;48.972;9.276;2023-04-03T08:20:52;8.20;1.00
1355;DHT22;671;48.972;9.276;2023-04-03T08:23:19;8.30;1.00
1355;DHT22;671;48.972;9.276;2023-04-03T08:25:46;8.50;1.00
1355;DHT22;671;48.972;9.276;2023-04-03T08:28:12;8.60;1.00
1355;DHT22;671;48.972;9.276;2023-04-03T08:30:40;8.60;1.00
1355;DHT22;671;48.972;9.276;2023-04-03T08:33:09;8.80;1.00
1355;DHT22;671;48.972;9.276;2023-04-03T08:35:41;8.60;99.90
1355;DHT22;671;48.972;9.276;2023-04-03T08:38:09;8.70;99.90
1355;DHT22;671;48.972;9.276;2023-04-03T08:40:36;8.80;99.90
1355;DHT22;671;48.972;9.276;2023-04-03T08:45:51;8.90;99.90
1355;DHT22;671;48.972;9.276;2023-04-03T08:48:31;9.00;99.90
1355;DHT22;671;48.972;9.276;2023-04-03T08:51:04;9.00;99.90
1355;DHT22;671;48.972;9.276;2023-04-03T08:53:40;8.90;99.90
1355;DHT22;671;48.972;9.276;2023-04-03T08:56:09;8.90;99.90
1355;DHT22;671;48.972;9.276;2023-04-03T09:01:25;9.10;91.80
1355;DHT22;671;48.972;9.276;2023-04-03T09:03:52;9.10;80.20
1355;DHT22;671;48.972;9.276;2023-04-03T09:06:31;9.20;29.60
1355;DHT22;671;48.972;9.276;2023-04-03T09:22:55;9.90;1.00
1355;DHT22;671;48.972;9.276;2023-04-03T09:25:31;10.00;1.00
1355;DHT22;671;48.972;9.276;2023-04-03T09:28:02;10.10;1.00
1355;DHT22;671;48.972;9.276;2023-04-03T09:30:29;10.20;1.00
1355;DHT22;671;48.972;9.276;2023-04-03T09:32:56;10.00;1.00
1355;DHT22;671;48.972;9.276;2023-04-03T09:35:28;10.20;1.00
1355;DHT22;671;48.972;9.276;2023-04-03T09:40:28;10.20;1.00
1355;DHT22;671;48.972;9.276;2023-04-03T09:42:58;10.20;1.00
1355;DHT22;671;48.972;9.276;2023-04-03T09:45:33;10.20;1.00
1355;DHT22;671;48.972;9.276;2023-04-03T09:53:41;10.40;1.00
1355;DHT22;671;48.972;9.276;2023-04-03T09:58:45;10.10;1.00
1355;DHT22;671;48.972;9.276;2023-04-03T10:04:17;10.40;1.00
1355;DHT22;671;48.972;9.276;2023-04-03T10:06:52;10.40;1.00
1355;DHT22;671;48.972;9.276;2023-04-03T10:12:04;10.40;1.00
1355;DHT22;671;48.972;9.276;2023-04-03T10:14:33;10.40;1.00
1355;DHT22;671;48.972;9.276;2023-04-03T10:17:13;10.30;1.00
1355;DHT22;671;48.972;9.276;2023-04-03T10:19:51;10.30;1.00
1355;DHT22;671;48.972;9.276;2023-04-03T10:27:42;10.30;99.90
1355;DHT22;671;48.972;9.276;2023-04-03T10:49:49;9.90;99.90
1355;DHT22;671;48.972;9.276;2023-04-03T10:52:19;9.80;99.90
1355;DHT22;671;48.972;9.276;2023-04-03T10:57:39;9.90;99.90
1355;DHT22;671;48.972;9.276;2023-04-03T11:00:15;9.80;99.90
1355;DHT22;671;48.972;9.276;2023-04-03T11:02:51;9.80;99.90
1355;DHT22;671;48.972;9.276;2023-04-03T11:05:30;9.70;99.90
1355;DHT22;671;48.972;9.276;2023-04-03T11:08:04;9.70;99.90
1355;DHT22;671;48.972;9.276;2023-04-03T11:10:44;9.70;99.90
1355;DHT22;671;48.972;9.276;2023-04-03T11:15:44;9.70;99.90
1355;DHT22;671;48.972;9.276;2023-04-03T11:18:21;9.80;99.90
1355;DHT22;671;48.972;9.276;2023-04-03T11:23:43;9.90;99.90
1355;DHT22;671;48.972;9.276;2023-04-03T11:26:12;9.90;99.90
1355;DHT22;671;48.972;9.276;2023-04-03T11:28:40;9.90;99.90
1355;DHT22;671;48.972;9.276;2023-04-03T11:36:59;9.90;99.90
1355;DHT22;671;48.972;9.276;2023-04-03T11:39:35;9.70;99.90
1355;DHT22;671;48.972;9.276;2023-04-03T11:44:40;9.80;99.90
1355;DHT22;671;48.972;9.276;2023-04-03T11:47:10;9.90;99.90
1355;DHT22;671;48.972;9.276;2023-04-03T11:50:04;10.00;99.90
1355;DHT22;671;48.972;9.276;2023-04-03T12:08:44;10.20;99.90
1355;DHT22;671;48.972;9.276;2023-04-03T12:32:47;10.70;99.90
1355;DHT22;671;48.972;9.276;2023-04-03T12:40:57;10.80;99.90
1355;DHT22;671;48.972;9.276;2023-04-03T12:46:19;10.80;99.90
1355;DHT22;671;48.972;9.276;2023-04-03T12:48:55;10.70;99.90
1355;DHT22;671;48.972;9.276;2023-04-03T12:51:43;10.80;99.90
1355;DHT22;671;48.972;9.276;2023-04-03T12:54:31;10.80;99.90
1355;DHT22;671;48.972;9.276;2023-04-03T12:57:19;10.80;99.90
1355;DHT22;671;48.972;9.276;2023-04-03T12:59:47;11.00;99.90
1355;DHT22;671;48.972;9.276;2023-04-03T13:04:49;11.00;99.90
1355;DHT22;671;48.972;9.276;2023-04-03T13:07:24;11.00;99.90
1355;DHT22;671;48.972;9.276;2023-04-03T13:09:58;10.90;99.90
1355;DHT22;671;48.972;9.276;2023-04-03T13:12:26;10.80;99.90
1355;DHT22;671;48.972;9.276;2023-04-03T13:14:56;10.80;99.90
1355;DHT22;671;48.972;9.276;2023-04-03T13:17:24;10.80;99.90
1355;DHT22;671;48.972;9.276;2023-04-03T13:19:51;10.90;99.90
1355;DHT22;671;48.972;9.276;2023-04-03T13:22:33;11.10;99.90
1355;DHT22;671;48.972;9.276;2023-04-03T13:25:06;11.10;99.90
1355;DHT22;671;48.972;9.276;2023-04-03T13:27:35;11.20;99.90
1355;DHT22;671;48.972;9.276;2023-04-03T13:30:03;11.30;99.90
1355;DHT22;671;48.972;9.276;2023-04-03T13:32:31;11.30;99.90
1355;DHT22;671;48.972;9.276;2023-04-03T13:34:58;11.10;99.90
1355;DHT22;671;48.972;9.276;2023-04-03T13:37:29;10.90;99.90
1355;DHT22;671;48.972;9.276;2023-04-03T13:42:36;10.80;99.90
1355;DHT22;671;48.972;9.276;2023-04-03T13:45:27;10.70;99.90
1355;DHT22;671;48.972;9.276;2023-04-03T13:48:17;10.60;99.90
1355;DHT22;671;48.972;9.276;2023-04-03T13:53:17;10.60;99.90
1355;DHT22;671;48.972;9.276;2023-04-03T13:59:03;11.00;99.90
1355;DHT22;671;48.972;9.276;2023-04-03T14:07:14;10.80;99.90
1355;DHT22;671;48.972;9.276;2023-04-03T14:10:08;10.90;99.90
1355;DHT22;671;48.972;9.276;2023-04-03T14:12:37;10.90;99.90
1355;DHT22;671;48.972;9.276;2023-04-03T14:15:22;10.90;99.90
1355;DHT22;671;48.972;9.276;2023-04-03T14:17:51;10.90;99.90
1355;DHT22;671;48.972;9.276;2023-04-03T14:20:20;11.00;99.90
1355;DHT22;671;48.972;9.276;2023-04-03T14:22:48;11.00;99.90
1355;DHT22;671;48.972;9.276;2023-04-03T14:25:16;10.70;99.90
1355;DHT22;671;48.972;9.276;2023-04-03T14:27:45;10.50;99.90
1355;DHT22;671;48.972;9.276;2023-04-03T14:30:17;10.30;99.90
1355;DHT22;671;48.972;9.276;2023-04-03T14:32:44;10.10;99.90
1355;DHT22;671;48.972;9.276;2023-04-03T14:35:11;10.10;99.90
1355;DHT22;671;48.972;9.276;2023-04-03T14:37:37;9.90;99.90
1355;DHT22;671;48.972;9.276;2023-04-03T14:40:06;9.90;99.90
1355;DHT22;671;48.972;9.276;2023-04-03T14:42:36;10.00;99.90
1355;DHT22;671;48.972;9.276;2023-04-03T14:45:06;10.40;99.90
1355;DHT22;671;48.972;9.276;2023-04-03T14:47:33;10.70;99.90
1355;DHT22;671;48.972;9.276;2023-04-03T14:50:02;10.90;99.90
1355;DHT22;671;48.972;9.276;2023-04-03T14:52:34;10.90;99.90
1355;DHT22;671;48.972;9.276;2023-04-03T14:55:04;10.90;99.90
1355;DHT22;671;48.972;9.276;2023-04-03T14:57:31;10.70;99.90
1355;DHT22;671;48.972;9.276;2023-04-03T14:59:58;10.40;99.90
1355;DHT22;671;48.972;9.276;2023-04-03T15:02:29;10.20;99.90
1355;DHT22;671;48.972;9.276;2023-04-03T15:04:58;10.00;99.90
1355;DHT22;671;48.972;9.276;2023-04-03T15:07:27;9.90;99.90
1355;DHT22;671;48.972;9.276;2023-04-03T15:09:54;9.70;99.90
1355;DHT22;671;48.972;9.276;2023-04-03T15:12:24;9.70;99.90
1355;DHT22;671;48.972;9.276;2023-04-03T15:14:50;9.70;99.90
1355;DHT22;671;48.972;9.276;2023-04-03T15:17:20;9.70;99.90
1355;DHT22;671;48.972;9.276;2023-04-03T15:19:47;9.90;99.90
1355;DHT22;671;48.972;9.276;2023-04-03T15:22:16;10.20;99.90
1355;DHT22;671;48.972;9.276;2023-04-03T15:24:43;10.50;99.90
1355;DHT22;671;48.972;9.276;2023-04-03T15:27:11;10.50;99.90
1355;DHT22;671;48.972;9.276;2023-04-03T15:29:40;10.70;99.90
1355;DHT22;671;48.972;9.276;2023-04-03T15:32:08;10.50;99.90
1355;DHT22;671;48.972;9.276;2023-04-03T15:34:36;10.20;99.90
1355;DHT22;671;48.972;9.276;2023-04-03T15:37:02;9.90;99.90
1355;DHT22;671;48.972;9.276;2023-04-03T15:39:29;9.70;99.90
1355;DHT22;671;48.972;9.276;2023-04-03T15:41:55;9.60;99.90
1355;DHT22;671;48.972;9.276;2023-04-03T15:44:22;9.40;99.90
1355;DHT22;671;48.972;9.276;2023-04-03T15:46:49;9.40;99.90
1355;DHT22;671;48.972;9.276;2023-04-03T15:49:18;9.40;99.90
1355;DHT22;671;48.972;9.276;2023-04-03T15:51:47;9.50;99.90
1355;DHT22;671;48.972;9.276;2023-04-03T15:54:13;9.50;99.90
1355;DHT22;671;48.972;9.276;2023-04-03T15:56:40;9.70;99.90
1355;DHT22;671;48.972;9.276;2023-04-03T15:59:07;9.90;99.90
1355;DHT22;671;48.972;9.276;2023-04-03T16:01:33;10.10;99.90
1355;DHT22;671;48.972;9.276;2023-04-03T16:04:00;9.80;99.90
1355;DHT22;671;48.972;9.276;2023-04-03T16:06:27;9.60;99.90
1355;DHT22;671;48.972;9.276;2023-04-03T16:08:56;9.30;99.90
1355;DHT22;671;48.972;9.276;2023-04-03T16:11:24;9.20;99.90
1355;DHT22;671;48.972;9.276;2023-04-03T16:13:53;9.00;99.90
1355;DHT22;671;48.972;9.276;2023-04-03T16:16:20;8.90;99.90
1355;DHT22;671;48.972;9.276;2023-04-03T16:18:47;8.90;99.90
1355;DHT22;671;48.972;9.276;2023-04-03T16:21:15;8.80;99.90
1355;DHT22;671;48.972;9.276;2023-04-03T16:23:43;8.80;99.90
1355;DHT22;671;48.972;9.276;2023-04-03T16:26:10;8.80;99.90
1355;DHT22;671;48.972;9.276;2023-04-03T16:28:36;8.80;99.90
1355;DHT22;671;48.972;9.276;2023-04-03T16:31:03;8.90;99.90
1355;DHT22;671;48.972;9.276;2023-04-03T16:33:31;9.00;99.90
1355;DHT22;671;48.972;9.276;2023-04-03T16:35:57;9.20;99.90
1355;DHT22;671;48.972;9.276;2023-04-03T16:38:24;9.30;99.90
1355;DHT22;671;48.972;9.276;2023-04-03T16:40:51;9.40;99.90
1355;DHT22;671;48.972;9.276;2023-04-03T16:43:18;9.50;99.90
1355;DHT22;671;48.972;9.276;2023-04-03T16:45:45;9.50;99.90
1355;DHT22;671;48.972;9.276;2023-04-03T16:48:11;9.50;99.90
1355;DHT22;671;48.972;9.276;2023-04-03T16:50:38;9.40;99.90
1355;DHT22;671;48.972;9.276;2023-04-03T16:53:04;9.30;99.90
1355;DHT22;671;48.972;9.276;2023-04-03T16:55:34;9.10;99.90
1355;DHT22;671;48.972;9.276;2023-04-03T16:58:01;9.00;99.90
1355;DHT22;671;48.972;9.276;2023-04-03T17:00:31;8.90;99.90
1355;DHT22;671;48.972;9.276;2023-04-03T17:02:57;8.70;99.90
1355;DHT22;671;48.972;9.276;2023-04-03T17:05:24;8.60;99.90
1355;DHT22;671;48.972;9.276;2023-04-03T17:07:51;8.50;99.90
1355;DHT22;671;48.972;9.276;2023-04-03T17:10:17;8.40;99.90
1355;DHT22;671;48.972;9.276;2023-04-03T17:12:44;8.40;99.90
1355;DHT22;671;48.972;9.276;2023-04-03T17:15:10;8.30;99.90
1355;DHT22;671;48.972;9.276;2023-04-03T17:17:37;8.30;99.90
1355;DHT22;671;48.972;9.276;2023-04-03T17:20:04;8.20;99.90
1355;DHT22;671;48.972;9.276;2023-04-03T17:22:31;8.20;99.90
1355;DHT22;671;48.972;9.276;2023-04-03T17:24:58;8.10;99.90
1355;DHT22;671;48.972;9.276;2023-04-03T17:27:24;8.10;99.90
1355;DHT22;671;48.972;9.276;2023-04-03T17:29:52;8.00;99.90
1355;DHT22;671;48.972;9.276;2023-04-03T17:32:18;8.00;99.90
1355;DHT22;671;48.972;9.276;2023-04-03T17:34:46;7.80;99.90
1355;DHT22;671;48.972;9.276;2023-04-03T17:37:13;7.70;99.90
1355;DHT22;671;48.972;9.276;2023-04-03T17:39:39;7.60;99.90
1355;DHT22;671;48.972;9.276;2023-04-03T17:42:06;7.60;99.90
1355;DHT22;671;48.972;9.276;2023-04-03T17:44:32;7.50;99.90
1355;DHT22;671;48.972;9.276;2023-04-03T17:46:59;7.40;99.90
1355;DHT22;671;48.972;9.276;2023-04-03T17:49:25;7.30;99.90
1355;DHT22;671;48.972;9.276;2023-04-03T17:51:51;7.20;99.90
1355;DHT22;671;48.972;9.276;2023-04-03T17:54:19;7.10;99.90
1355;DHT22;671;48.972;9.276;2023-04-03T17:56:45;7.00;99.90
1355;DHT22;671;48.972;9.276;2023-04-03T17:59:16;6.90;99.90
1355;DHT22;671;48.972;9.276;2023-04-03T18:01:44;6.80;99.90
1355;DHT22;671;48.972;9.276;2023-04-03T18:04:12;6.70;99.90
1355;DHT22;671;48.972;9.276;2023-04-03T18:09:11;6.50;99.90
1355;DHT22;671;48.972;9.276;2023-04-03T18:11:41;6.50;99.90
1355;DHT22;671;48.972;9.276;2023-04-03T18:14:08;6.30;99.90
1355;DHT22;671;48.972;9.276;2023-04-03T18:16:35;6.30;99.90
1355;DHT22;671;48.972;9.276;2023-04-03T18:19:02;6.20;99.90
1355;DHT22;671;48.972;9.276;2023-04-03T18:21:29;6.20;99.90
1355;DHT22;671;48.972;9.276;2023-04-03T18:23:56;6.20;99.90
1355;DHT22;671;48.972;9.276;2023-04-03T18:26:25;6.10;99.90
1355;DHT22;671;48.972;9.276;2023-04-03T18:28:57;6.00;99.90
1355;DHT22;671;48.972;9.276;2023-04-03T18:31:26;6.00;99.90
1355;DHT22;671;48.972;9.276;2023-04-03T18:33:53;5.90;99.90
1355;DHT22;671;48.972;9.276;2023-04-03T18:36:27;5.90;99.90
1355;DHT22;671;48.972;9.276;2023-04-03T18:38:54;5.80;99.90
1355;DHT22;671;48.972;9.276;2023-04-03T18:41:26;5.70;99.90
1355;DHT22;671;48.972;9.276;2023-04-03T18:43:55;5.70;99.90
1355;DHT22;671;48.972;9.276;2023-04-03T18:46:22;5.70;99.90
1355;DHT22;671;48.972;9.276;2023-04-03T18:48:49;5.70;99.90
1355;DHT22;671;48.972;9.276;2023-04-03T18:51:15;5.60;99.90
1355;DHT22;671;48.972;9.276;2023-04-03T18:53:42;5.60;99.90
1355;DHT22;671;48.972;9.276;2023-04-03T18:56:08;5.60;99.90
1355;DHT22;671;48.972;9.276;2023-04-03T18:58:35;5.60;99.90
1355;DHT22;671;48.972;9.276;2023-04-03T19:01:01;5.50;99.90
1355;DHT22;671;48.972;9.276;2023-04-03T19:03:29;5.50;99.90
1355;DHT22;671;48.972;9.276;2023-04-03T19:05:56;5.50;99.90
1355;DHT22;671;48.972;9.276;2023-04-03T19:08:23;5.50;99.90
1355;DHT22;671;48.972;9.276;2023-04-03T19:10:50;5.50;99.90
1355;DHT22;671;48.972;9.276;2023-04-03T19:13:16;5.50;99.90
1355;DHT22;671;48.972;9.276;2023-04-03T19:15:43;5.50;99.90
1355;DHT22;671;48.972;9.276;2023-04-03T19:18:09;5.50;99.90
1355;DHT22;671;48.972;9.276;2023-04-03T19:20:36;5.40;99.90
1355;DHT22;671;48.972;9.276;2023-04-03T19:23:03;5.40;99.90